Time;durP1;ratioP1;P1;durP2;ratioP2;P2;SDS_P1;SDS_P2;PMS_P1;PMS_P2;Temp;Humidity;BMP_temperature;BMP_pressure;BME280_temperature;BME280_humidity;BME280_pressure;Samples;Min_cycle;Max_cycle;Signal;HPM_P1;HPM_P2
2023/01/30 00:01:48;;;;;;;;;;;;;;;15.84;70.61;101331.88;7407060;19;1876;-49
2023/01/30 00:04:16;;;;;;;;;;;;;;;15.86;70.61;101342.47;7406722;19;1102;-49
2023/01/30 00:06:44;;;;;;;;;;;;;;;15.83;70.43;101337.31;7405696;19;2057;-49
2023/01/30 00:09:14;;;;;;;;;;;;;;;15.81;70.61;101337.41;7405369;19;2128;-49
2023/01/30 00:11:45;;;;;;;;;;;;;;;15.79;70.62;101322.47;7403300;19;2237;-49
2023/01/30 00:14:14;;;;;;;;;;;;;;;15.76;70.91;101328.88;7404756;19;1679;-49
2023/01/30 00:16:42;;;;;;;;;;;;;;;15.76;70.70;101334.19;7406274;19;1835;-49
2023/01/30 00:19:10;;;;;;;;;;;;;;;15.76;71.04;101339.53;7405225;19;1994;-49
2023/01/30 00:21:39;;;;;;;;;;;;;;;15.75;70.66;101310.28;7407516;19;1068;-49
2023/01/30 00:24:07;;;;;;;;;;;;;;;15.73;70.67;101323.72;7403057;19;1870;-49
2023/01/30 00:26:36;;;;;;;;;;;;;;;15.74;70.46;101316.56;7404720;19;1943;-49
2023/01/30 00:29:07;;;;;;;;;;;;;;;15.73;70.40;101323.72;7406013;19;1808;-49
2023/01/30 00:31:35;;;;;;;;;;;;;;;15.72;70.46;101324.66;7404461;19;2089;-49
2023/01/30 00:34:03;;;;;;;;;;;;;;;15.69;70.43;101307.03;7404859;19;1639;-49
2023/01/30 00:36:31;;;;;;;;;;;;;;;15.66;70.33;101320.59;7404389;19;1966;-49
2023/01/30 00:39:00;;;;;;;;;;;;;;;15.70;70.52;101310.56;7405097;19;1852;-49
2023/01/30 00:47:04;;;;;;;;;;;;;;;15.65;70.52;101307.34;7405662;19;1899;-50
2023/01/30 00:47:09;;;;;;;;;;;;;;;15.67;70.56;101310.75;7405640;19;1926;-49
2023/01/30 00:49:37;;;;;;;;;;;;;;;15.63;70.43;101299.44;7403377;19;1919;-49
2023/01/30 00:52:06;;;;;;;;;;;;;;;15.60;70.86;101297.00;7402803;19;1903;-49
2023/01/30 00:54:35;;;;;;;;;;;;;;;15.60;71.09;101304.97;7404036;19;2026;-49
2023/01/30 00:57:03;;;;;;;;;;;;;;;15.58;70.75;101290.03;7401948;19;1795;-49
2023/01/30 00:59:34;;;;;;;;;;;;;;;15.55;71.07;101306.22;7401282;19;1763;-49
2023/01/30 01:02:02;;;;;;;;;;;;;;;15.54;70.86;101297.38;7404804;19;1998;-49
2023/01/30 01:04:30;;;;;;;;;;;;;;;15.55;70.93;101296.41;7404333;19;1959;-49
2023/01/30 01:06:59;;;;;;;;;;;;;;;15.52;70.63;101286.81;7405057;19;1057;-49
2023/01/30 01:09:27;;;;;;;;;;;;;;;15.49;70.64;101287.00;7402271;19;2067;-49
2023/01/30 01:11:55;;;;;;;;;;;;;;;15.47;70.92;101278.25;7402348;19;2025;-49
2023/01/30 01:14:24;;;;;;;;;;;;;;;15.47;71.10;101291.59;7403066;19;2162;-49
2023/01/30 01:16:54;;;;;;;;;;;;;;;15.48;70.87;101273.81;7402368;19;1917;-49
2023/01/30 01:19:23;;;;;;;;;;;;;;;15.49;70.77;101278.16;7404210;19;1822;-49
2023/01/30 01:21:51;;;;;;;;;;;;;;;15.47;70.93;101288.91;7404029;19;1817;-49
2023/01/30 01:24:19;;;;;;;;;;;;;;;15.45;70.65;101274.84;7402285;19;1826;-49
2023/01/30 01:26:48;;;;;;;;;;;;;;;15.48;70.85;101272.00;7403473;19;2084;-49
2023/01/30 01:29:17;;;;;;;;;;;;;;;15.47;70.67;101275.59;7402915;19;2005;-49
2023/01/30 01:31:45;;;;;;;;;;;;;;;15.47;71.00;101264.09;7403116;19;1843;-49
2023/01/30 01:34:16;;;;;;;;;;;;;;;15.47;70.66;101280.91;7403290;19;1993;-50
2023/01/30 01:36:45;;;;;;;;;;;;;;;15.46;71.02;101273.06;7404046;19;2024;-49
2023/01/30 01:39:13;;;;;;;;;;;;;;;15.50;70.99;101286.06;7401573;19;1989;-49
2023/01/30 01:41:38;;;;;;;;;;;;;;;15.44;70.61;101273.16;7403314;19;1996;-49
2023/01/30 01:44:09;;;;;;;;;;;;;;;15.45;70.79;101280.16;7403640;19;1831;-49
2023/01/30 01:46:38;;;;;;;;;;;;;;;15.46;70.79;101246.41;7403059;19;1753;-49
2023/01/30 01:49:08;;;;;;;;;;;;;;;15.47;70.99;101278.25;7402776;19;1748;-49
2023/01/30 01:51:40;;;;;;;;;;;;;;;15.42;70.45;101264.41;7402435;19;1848;-49
2023/01/30 01:54:11;;;;;;;;;;;;;;;15.42;70.77;101268.84;7401178;19;2329;-49
2023/01/30 01:56:41;;;;;;;;;;;;;;;15.40;71.07;101262.75;7401385;19;2036;-49
2023/01/30 01:59:12;;;;;;;;;;;;;;;15.36;70.80;101270.13;7403821;19;1886;-49
2023/01/30 02:01:40;;;;;;;;;;;;;;;15.32;70.97;101260.63;7401855;19;1525;-49
2023/01/30 02:04:10;;;;;;;;;;;;;;;15.33;70.77;101272.97;7402495;19;1830;-49
2023/01/30 02:06:44;;;;;;;;;;;;;;;15.31;71.07;101257.06;7400507;19;2096;-49
2023/01/30 02:09:12;;;;;;;;;;;;;;;15.29;71.14;101259.00;7401934;19;1893;-49
2023/01/30 02:11:44;;;;;;;;;;;;;;;15.28;71.28;101251.13;7400360;19;2011;-49
2023/01/30 02:14:13;;;;;;;;;;;;;;;15.25;70.78;101245.97;7400748;19;1967;-49
2023/01/30 02:16:41;;;;;;;;;;;;;;;15.28;70.99;101264.44;7402167;19;1742;-49
2023/01/30 02:19:18;;;;;;;;;;;;;;;15.25;71.02;101251.31;7401139;19;1870;-49
2023/01/30 02:22:03;;;;;;;;;;;;;;;15.23;70.92;101253.22;7402908;19;1041;-49
2023/01/30 02:24:46;;;;;;;;;;;;;;;15.20;71.14;101235.63;7400024;19;2024;-49
2023/01/30 02:27:30;;;;;;;;;;;;;;;15.23;71.05;101263.88;7401647;19;1939;-49
2023/01/30 02:30:12;;;;;;;;;;;;;;;15.22;71.19;101244.38;7402083;19;1874;-49
2023/01/30 02:32:46;;;;;;;;;;;;;;;15.24;70.76;101238.91;7394805;19;1906;-49
2023/01/30 02:35:20;;;;;;;;;;;;;;;15.29;71.03;101237.66;7398298;19;1835;-49
2023/01/30 02:37:53;;;;;;;;;;;;;;;15.28;70.64;101245.78;7396899;19;1105;-49
2023/01/30 02:40:31;;;;;;;;;;;;;;;15.28;70.68;101245.78;7401531;19;1738;-49
2023/01/30 02:43:05;;;;;;;;;;;;;;;15.27;70.69;101234.25;7402187;19;1990;-49
2023/01/30 02:45:36;;;;;;;;;;;;;;;15.27;70.88;101244.06;7401349;19;1885;-49
2023/01/30 02:48:08;;;;;;;;;;;;;;;15.26;71.22;101247.66;7401014;19;2322;-49
2023/01/30 02:50:39;;;;;;;;;;;;;;;16.22;67.77;101242.22;7400170;19;2013;-49
2023/01/30 02:53:08;;;;;;;;;;;;;;;17.26;64.10;101224.13;7401753;19;1835;-50
2023/01/30 02:55:36;;;;;;;;;;;;;;;17.48;63.96;101234.09;7400271;19;1799;-49
2023/01/30 02:58:06;;;;;;;;;;;;;;;18.19;62.67;101223.41;7401584;19;2001;-49
2023/01/30 03:00:42;;;;;;;;;;;;;;;18.77;61.05;101215.28;7398628;19;2174;-50
2023/01/30 03:03:22;;;;;;;;;;;;;;;19.03;60.42;101209.69;7399210;19;1897;-50
2023/01/30 03:06:01;;;;;;;;;;;;;;;19.14;60.28;101227.56;7397933;19;2058;-49
2023/01/30 03:08:33;;;;;;;;;;;;;;;19.07;60.05;101237.94;7398039;19;1702;-50
2023/01/30 03:11:03;;;;;;;;;;;;;;;18.96;60.54;101220.06;7400154;19;1849;-50
2023/01/30 03:13:37;;;;;;;;;;;;;;;18.93;60.77;101233.69;7400639;19;2028;-50
2023/01/30 03:16:06;;;;;;;;;;;;;;;18.89;61.01;101221.53;7400569;19;1639;-50
2023/01/30 03:18:37;;;;;;;;;;;;;;;18.93;60.99;101217.63;7400770;19;1646;-50
2023/01/30 03:21:06;;;;;;;;;;;;;;;18.98;60.52;101219.91;7400452;19;1928;-50
2023/01/30 03:23:34;;;;;;;;;;;;;;;18.96;60.70;101219.19;7407452;19;2051;-50
2023/01/30 03:26:05;;;;;;;;;;;;;;;19.03;60.33;101217.72;7407856;19;1555;-49
2023/01/30 03:28:34;;;;;;;;;;;;;;;19.07;60.49;101220.03;7407646;19;2218;-49
2023/01/30 03:31:02;;;;;;;;;;;;;;;19.05;60.14;101232.69;7406231;19;1869;-50
2023/01/30 03:33:30;;;;;;;;;;;;;;;19.14;60.39;101214.16;7406616;19;1886;-50
2023/01/30 03:36:01;;;;;;;;;;;;;;;19.18;59.73;101215.59;7405868;19;1763;-49
2023/01/30 03:38:29;;;;;;;;;;;;;;;18.96;60.59;101206.66;7406437;19;1566;-50
2023/01/30 03:40:58;;;;;;;;;;;;;;;18.09;62.63;101225.97;7407272;19;1560;-50
2023/01/30 03:43:26;;;;;;;;;;;;;;;17.41;63.48;101238.19;7407782;19;1893;-50
2023/01/30 03:45:54;;;;;;;;;;;;;;;17.06;65.13;101211.38;7407571;19;1840;-49
2023/01/30 03:48:23;;;;;;;;;;;;;;;17.05;65.92;101223.03;7406802;19;1913;-49
2023/01/30 03:50:51;;;;;;;;;;;;;;;17.83;63.75;101203.88;7405804;19;1882;-49
2023/01/30 03:53:22;;;;;;;;;;;;;;;18.71;61.45;101207.75;7402878;19;2080;-49
2023/01/30 03:55:50;;;;;;;;;;;;;;;19.40;59.46;101204.84;7406043;19;1873;-49
2023/01/30 03:58:18;;;;;;;;;;;;;;;19.63;58.72;101204.72;7406825;19;1830;-50
2023/01/30 04:00:47;;;;;;;;;;;;;;;19.60;58.53;101207.69;7406786;19;1842;-51
2023/01/30 04:03:15;;;;;;;;;;;;;;;19.32;59.72;101196.56;7406237;19;2056;-50
2023/01/30 04:05:44;;;;;;;;;;;;;;;19.20;59.70;101202.94;7402620;19;1852;-49
2023/01/30 04:08:12;;;;;;;;;;;;;;;19.18;60.19;101199.53;7407339;19;2058;-50
2023/01/30 04:10:43;;;;;;;;;;;;;;;19.10;60.03;101196.63;7406316;19;1722;-50
2023/01/30 04:13:11;;;;;;;;;;;;;;;19.23;60.00;101203.53;7404810;19;1858;-50
2023/01/30 04:15:40;;;;;;;;;;;;;;;19.47;59.50;101179.19;7405370;19;2020;-50
2023/01/30 04:18:08;;;;;;;;;;;;;;;19.74;58.30;101179.72;7405381;19;1918;-50
2023/01/30 04:20:37;;;;;;;;;;;;;;;19.74;58.76;101193.16;7403165;19;2043;-50
2023/01/30 04:23:05;;;;;;;;;;;;;;;19.66;58.95;101191.91;7405389;19;1791;-50
2023/01/30 04:25:34;;;;;;;;;;;;;;;19.73;58.59;101197.63;7406670;19;1834;-50
2023/01/30 04:28:04;;;;;;;;;;;;;;;19.69;58.59;101196.16;7405784;19;2277;-50
2023/01/30 04:30:33;;;;;;;;;;;;;;;19.63;58.96;101185.94;7403858;19;2063;-50
2023/01/30 04:33:01;;;;;;;;;;;;;;;19.62;58.90;101193.16;7400051;19;1849;-50
2023/01/30 04:35:29;;;;;;;;;;;;;;;19.66;59.04;101181.19;7402195;19;1667;-50
2023/01/30 04:37:58;;;;;;;;;;;;;;;19.64;58.69;101187.66;7406204;19;1045;-49
2023/01/30 04:40:26;;;;;;;;;;;;;;;19.64;58.61;101187.66;7405657;19;1885;-50
2023/01/30 04:42:54;;;;;;;;;;;;;;;19.71;58.70;101204.97;7405105;19;2046;-50
2023/01/30 04:45:25;;;;;;;;;;;;;;;19.67;58.60;101196.28;7403918;19;2129;-51
2023/01/30 04:47:53;;;;;;;;;;;;;;;19.63;59.00;101188.63;7405780;19;1862;-50
2023/01/30 04:50:21;;;;;;;;;;;;;;;19.75;58.34;101193.00;7403646;19;1750;-50
2023/01/30 04:52:50;;;;;;;;;;;;;;;19.71;58.65;101204.09;7403589;19;1838;-50
2023/01/30 04:55:18;;;;;;;;;;;;;;;19.70;58.44;101205.94;7403842;19;1863;-50
2023/01/30 04:57:46;;;;;;;;;;;;;;;19.74;58.60;101201.19;7404431;19;2054;-50
2023/01/30 05:00:15;;;;;;;;;;;;;;;19.70;58.66;101205.94;7404850;19;1939;-49
2023/01/30 05:02:46;;;;;;;;;;;;;;;19.71;58.62;101196.91;7404610;19;1918;-50
2023/01/30 05:05:14;;;;;;;;;;;;;;;19.70;58.93;101200.56;7403030;19;1913;-50
2023/01/30 05:07:42;;;;;;;;;;;;;;;19.74;58.62;101191.31;7404567;19;1313;-49
2023/01/30 05:10:11;;;;;;;;;;;;;;;19.70;58.97;101197.88;7401275;19;2314;-50
2023/01/30 05:12:40;;;;;;;;;;;;;;;19.63;58.57;101188.63;7308419;19;13939;-50
2023/01/30 05:15:09;;;;;;;;;;;;;;;19.43;59.29;101179.59;7402137;19;1770;-49
2023/01/30 05:17:37;;;;;;;;;;;;;;;18.74;61.01;101201.28;7401907;19;1913;-49
2023/01/30 05:20:09;;;;;;;;;;;;;;;18.19;62.99;101210.03;7395981;19;1806;-50
2023/01/30 05:22:37;;;;;;;;;;;;;;;17.85;64.53;101201.09;7403126;19;1064;-49
2023/01/30 05:25:06;;;;;;;;;;;;;;;17.57;64.84;101210.34;7401476;19;1751;-49
2023/01/30 05:27:34;;;;;;;;;;;;;;;17.40;65.58;101200.88;7398316;19;2451;-46
2023/01/30 05:30:04;;;;;;;;;;;;;;;17.84;64.47;101202.03;7403265;19;2127;-46
2023/01/30 05:32:32;;;;;;;;;;;;;;;18.34;63.23;101194.59;7401818;19;1854;-46
2023/01/30 05:35:00;;;;;;;;;;;;;;;18.33;63.84;101192.06;7401372;19;1770;-48
2023/01/30 05:37:31;;;;;;;;;;;;;;;17.97;64.36;101212.69;7403935;19;1811;-46
2023/01/30 05:39:59;;;;;;;;;;;;;;;17.80;64.78;101213.91;7403685;19;2072;-58
2023/01/30 05:42:28;;;;;;;;;;;;;;;18.06;63.58;101217.31;7401481;19;1823;-57
2023/01/30 05:44:56;;;;;;;;;;;;;;;18.28;62.83;101195.06;7398527;19;1968;-56
2023/01/30 05:47:24;;;;;;;;;;;;;;;18.40;62.23;101193.25;7402262;19;1952;-56
2023/01/30 05:49:52;;;;;;;;;;;;;;;17.88;63.60;101196.34;7400502;19;1829;-55
2023/01/30 05:52:21;;;;;;;;;;;;;;;17.60;64.28;101210.94;7401707;19;1936;-57
2023/01/30 05:54:52;;;;;;;;;;;;;;;18.01;63.16;101198.94;7402749;19;1731;-57
2023/01/30 05:57:20;;;;;;;;;;;;;;;18.37;62.10;101209.59;7402404;19;1946;-56
2023/01/30 05:59:48;;;;;;;;;;;;;;;18.62;61.58;101187.91;7401414;19;1908;-57
2023/01/30 06:02:16;;;;;;;;;;;;;;;18.05;62.76;101215.63;7400466;19;1699;-57
2023/01/30 06:04:45;;;;;;;;;;;;;;;17.66;63.38;101206.94;7393072;19;1940;-57
2023/01/30 06:07:13;;;;;;;;;;;;;;;17.82;62.91;101210.16;7397650;19;1639;-57
2023/01/30 06:09:41;;;;;;;;;;;;;;;18.03;62.42;101207.69;7399964;19;1967;-57
2023/01/30 06:12:12;;;;;;;;;;;;;;;18.31;61.81;101196.69;7399150;19;1857;-57
2023/01/30 06:14:40;;;;;;;;;;;;;;;17.97;62.09;101192.13;7400019;19;1700;-57
2023/01/30 06:17:09;;;;;;;;;;;;;;;17.55;63.21;101209.56;7399907;19;1966;-57
2023/01/30 06:19:37;;;;;;;;;;;;;;;17.65;63.10;101202.56;7400808;19;1677;-58
2023/01/30 06:22:05;;;;;;;;;;;;;;;17.98;62.36;101187.59;7401121;19;1289;-57
2023/01/30 06:24:34;;;;;;;;;;;;;;;18.23;61.65;101186.56;7399130;19;1746;-57
2023/01/30 06:27:02;;;;;;;;;;;;;;;18.01;62.65;101196.25;7400124;19;1761;-56
2023/01/30 06:29:33;;;;;;;;;;;;;;;17.62;63.11;101194.78;7400126;19;1685;-57
2023/01/30 06:32:01;;;;;;;;;;;;;;;17.53;63.60;101190.09;7400357;19;1857;-56
2023/01/30 06:34:29;;;;;;;;;;;;;;;17.89;62.84;101206.09;7398253;19;1562;-57
2023/01/30 06:36:58;;;;;;;;;;;;;;;18.12;62.33;101192.75;7399215;19;2108;-57
2023/01/30 06:39:26;;;;;;;;;;;;;;;17.81;63.10;101189.72;7398518;19;1757;-57
2023/01/30 06:41:54;;;;;;;;;;;;;;;17.45;63.55;101188.03;7400187;19;1888;-57
2023/01/30 06:44:22;;;;;;;;;;;;;;;17.66;63.10;101189.06;7395725;19;1895;-57
2023/01/30 06:46:53;;;;;;;;;;;;;;;18.00;61.96;101181.16;7397884;19;1828;-59
2023/01/30 06:49:22;;;;;;;;;;;;;;;18.03;62.35;101193.47;7398122;19;1729;-58
2023/01/30 06:51:50;;;;;;;;;;;;;;;17.64;63.06;101195.50;7400266;19;1636;-57
2023/01/30 06:54:18;;;;;;;;;;;;;;;17.60;62.52;101199.38;7396983;19;1897;-57
2023/01/30 06:56:47;;;;;;;;;;;;;;;17.97;62.13;101201.97;7395838;19;1936;-57
2023/01/30 06:59:15;;;;;;;;;;;;;;;18.37;60.67;101190.84;7397933;19;1873;-57
2023/01/30 07:01:43;;;;;;;;;;;;;;;18.78;59.84;101192.03;7399087;19;1962;-57
2023/01/30 07:04:14;;;;;;;;;;;;;;;18.80;59.54;101196.34;7398943;19;1938;-57
2023/01/30 07:06:42;;;;;;;;;;;;;;;18.07;62.11;101197.63;7399825;19;1029;-57
2023/01/30 07:09:11;;;;;;;;;;;;;;;17.80;62.71;101204.06;7397819;19;1798;-57
2023/01/30 07:11:39;;;;;;;;;;;;;;;18.25;61.32;101196.16;7397198;19;2868;-56
2023/01/30 07:14:07;;;;;;;;;;;;;;;18.66;60.49;101200.09;7395473;19;2205;-57
2023/01/30 07:16:35;;;;;;;;;;;;;;;19.02;59.48;101190.09;7399194;19;1926;-57
2023/01/30 07:19:04;;;;;;;;;;;;;;;19.03;59.42;101197.13;7396877;19;1668;-57
2023/01/30 07:21:35;;;;;;;;;;;;;;;18.80;59.92;101190.09;7396022;19;1664;-57
2023/01/30 07:24:03;;;;;;;;;;;;;;;18.73;60.23;101203.13;7392314;19;1791;-57
2023/01/30 07:26:31;;;;;;;;;;;;;;;18.56;60.55;101209.84;7394167;19;2114;-57
2023/01/30 07:29:00;;;;;;;;;;;;;;;18.15;59.33;101200.53;7394515;19;2016;-57
2023/01/30 07:31:28;;;;;;;;;;;;;;;18.23;59.47;101205.31;7393625;19;2008;-57
2023/01/30 07:33:56;;;;;;;;;;;;;;;18.46;59.22;101201.69;7392019;19;2043;-56
2023/01/30 07:36:25;;;;;;;;;;;;;;;18.84;58.25;101171.00;7396056;19;1951;-57
2023/01/30 07:38:55;;;;;;;;;;;;;;;19.00;58.40;101191.16;7397882;19;1703;-57
2023/01/30 07:41:24;;;;;;;;;;;;;;;18.91;58.72;101208.00;7398068;19;1690;-57
2023/01/30 07:43:52;;;;;;;;;;;;;;;18.78;59.00;101197.38;7397593;19;1837;-57
2023/01/30 07:46:20;;;;;;;;;;;;;;;18.72;59.44;101203.22;7398635;19;2061;-57
2023/01/30 07:48:49;;;;;;;;;;;;;;;18.70;59.46;101198.00;7398342;19;2075;-57
2023/01/30 07:51:17;;;;;;;;;;;;;;;18.63;59.63;101181.56;7395512;19;1718;-57
2023/01/30 07:53:45;;;;;;;;;;;;;;;18.74;59.37;101186.09;7394185;19;1830;-58
2023/01/30 07:56:18;;;;;;;;;;;;;;;18.68;59.41;101178.50;7394780;19;1574;-58
2023/01/30 07:58:46;;;;;;;;;;;;;;;18.68;59.60;101192.78;7396690;19;1578;-58
2023/01/30 08:01:14;;;;;;;;;;;;;;;18.72;59.30;101187.16;7395935;19;1561;-57
2023/01/30 08:03:44;;;;;;;;;;;;;;;18.66;60.14;101167.06;7397251;19;1184;-57
2023/01/30 08:06:13;;;;;;;;;;;;;;;18.81;59.75;101181.09;7397106;19;1401;-57
2023/01/30 08:08:41;;;;;;;;;;;;;;;18.64;59.72;101143.09;7401489;19;1937;-57
2023/01/30 08:11:10;;;;;;;;;;;;;;;19.00;58.90;101175.94;7403904;19;1947;-57
2023/01/30 08:13:41;;;;;;;;;;;;;;;19.02;58.70;101174.00;7403307;19;1860;-57
2023/01/30 08:16:09;;;;;;;;;;;;;;;19.08;58.69;101173.50;7403336;19;1989;-57
2023/01/30 08:18:38;;;;;;;;;;;;;;;19.07;58.74;101178.97;7403596;19;1986;-57
2023/01/30 08:21:07;;;;;;;;;;;;;;;19.03;58.47;101188.25;7401433;19;2195;-57
2023/01/30 08:23:35;;;;;;;;;;;;;;;18.97;58.69;101167.31;7403733;19;1848;-57
2023/01/30 08:26:05;;;;;;;;;;;;;;;18.96;58.52;101179.88;7403564;19;1667;-57
2023/01/30 08:28:33;;;;;;;;;;;;;;;18.72;59.84;101182.69;7403237;19;1875;-58
2023/01/30 08:31:04;;;;;;;;;;;;;;;18.57;59.59;101175.84;7401486;19;2032;-57
2023/01/30 08:33:32;;;;;;;;;;;;;;;18.77;59.30;101187.66;7401471;19;1874;-58
2023/01/30 08:36:01;;;;;;;;;;;;;;;18.88;59.47;101171.59;7402311;19;1508;-57
2023/01/30 08:38:29;;;;;;;;;;;;;;;18.89;59.30;101173.28;7403092;19;1997;-58
2023/01/30 08:40:59;;;;;;;;;;;;;;;18.88;59.68;101171.59;7404667;19;1929;-58
2023/01/30 08:43:28;;;;;;;;;;;;;;;18.83;59.73;101171.94;7404054;19;1586;-57
2023/01/30 08:45:56;;;;;;;;;;;;;;;18.92;59.22;101162.34;7405130;19;1544;-59
2023/01/30 08:48:27;;;;;;;;;;;;;;;19.01;59.60;101180.31;7404118;19;2256;-57
2023/01/30 08:50:55;;;;;;;;;;;;;;;19.03;59.06;101156.94;7403689;19;2003;-58
2023/01/30 08:53:24;;;;;;;;;;;;;;;19.02;59.52;101157.91;7401520;19;1883;-58
2023/01/30 08:55:53;;;;;;;;;;;;;;;18.94;59.67;101160.38;7402390;19;1820;-58
2023/01/30 08:58:21;;;;;;;;;;;;;;;18.91;59.70;101155.25;7403952;19;1844;-57
2023/01/30 09:00:49;;;;;;;;;;;;;;;18.94;59.76;101152.34;7402777;19;1858;-57
2023/01/30 09:03:18;;;;;;;;;;;;;;;18.61;60.33;101142.50;7404066;19;2013;-58
2023/01/30 09:05:49;;;;;;;;;;;;;;;18.04;62.49;101160.38;7402943;19;2015;-57
2023/01/30 09:08:17;;;;;;;;;;;;;;;17.61;63.59;101159.16;7402410;19;1901;-58
2023/01/30 09:10:46;;;;;;;;;;;;;;;17.27;64.36;101153.69;7403568;19;1828;-58
2023/01/30 09:13:14;;;;;;;;;;;;;;;17.19;65.32;101157.88;7402052;19;1875;-57
2023/01/30 09:15:44;;;;;;;;;;;;;;;17.84;63.71;101152.06;7400410;19;1984;-57
2023/01/30 09:18:12;;;;;;;;;;;;;;;18.57;61.88;101138.38;7402315;19;1994;-57
2023/01/30 09:20:40;;;;;;;;;;;;;;;19.06;60.64;101111.13;7401598;19;1992;-58
2023/01/30 09:23:11;;;;;;;;;;;;;;;18.59;61.43;101129.22;7401118;19;1959;-58
2023/01/30 09:25:40;;;;;;;;;;;;;;;18.09;63.10;101134.97;7402693;19;1649;-57
2023/01/30 09:28:08;;;;;;;;;;;;;;;18.47;62.02;101135.56;7403022;19;1280;-58
2023/01/30 09:30:37;;;;;;;;;;;;;;;18.93;60.90;101126.50;7401333;19;1985;-57
2023/01/30 09:33:05;;;;;;;;;;;;;;;19.27;60.15;101112.97;7400376;19;1895;-57
2023/01/30 09:35:34;;;;;;;;;;;;;;;19.30;59.83;101111.84;7401083;19;1780;-57
2023/01/30 09:38:03;;;;;;;;;;;;;;;19.16;59.84;101116.56;7402529;19;1538;-57
2023/01/30 09:40:36;;;;;;;;;;;;;;;19.03;59.65;101103.31;7402005;19;1920;-57
2023/01/30 09:43:21;;;;;;;;;;;;;;;19.03;59.73;101107.84;7402822;19;1937;-57
2023/01/30 09:46:01;;;;;;;;;;;;;;;18.98;60.03;101107.34;7400121;19;2016;-57
2023/01/30 09:48:32;;;;;;;;;;;;;;;18.90;60.09;101099.97;7402152;19;1858;-57
2023/01/30 09:51:07;;;;;;;;;;;;;;;18.87;60.04;101093.00;7401330;19;1922;-57
2023/01/30 09:53:40;;;;;;;;;;;;;;;18.85;60.22;101118.25;7400752;19;1932;-57
2023/01/30 09:56:11;;;;;;;;;;;;;;;18.82;60.30;101097.91;7400082;19;1806;-57
2023/01/30 09:58:44;;;;;;;;;;;;;;;18.84;60.00;101079.00;7401766;19;1828;-57
2023/01/30 10:01:17;;;;;;;;;;;;;;;18.83;60.43;101099.59;7401495;19;1502;-57
2023/01/30 10:03:54;;;;;;;;;;;;;;;18.84;60.43;101089.72;7401900;19;1802;-56
2023/01/30 10:06:22;;;;;;;;;;;;;;;18.86;60.23;101082.41;7401464;19;1847;-57
2023/01/30 10:08:55;;;;;;;;;;;;;;;18.87;59.69;101076.09;7398465;19;2028;-57
2023/01/30 10:11:32;;;;;;;;;;;;;;;18.84;59.76;101068.28;7401747;19;1898;-57
2023/01/30 10:14:17;;;;;;;;;;;;;;;18.90;59.30;101067.81;7400282;19;2005;-57
2023/01/30 10:16:52;;;;;;;;;;;;;;;19.02;59.05;101058.75;7401660;19;2199;-58
2023/01/30 10:19:41;;;;;;;;;;;;;;;18.89;59.58;101052.69;7400568;19;1814;-57
2023/01/30 10:22:17;;;;;;;;;;;;;;;18.93;59.35;101067.53;7401174;19;1823;-57
2023/01/30 10:24:50;;;;;;;;;;;;;;;18.92;59.22;101052.47;7400769;19;2001;-57
2023/01/30 10:27:22;;;;;;;;;;;;;;;18.93;59.71;101055.97;7399916;19;2044;-57
2023/01/30 10:29:55;;;;;;;;;;;;;;;18.74;59.21;101046.78;7400087;19;1882;-58
2023/01/30 10:32:27;;;;;;;;;;;;;;;18.85;59.30;101046.75;7397610;19;1951;-59
2023/01/30 10:34:57;;;;;;;;;;;;;;;18.90;59.37;101041.03;7399681;19;1899;-62
2023/01/30 10:37:28;;;;;;;;;;;;;;;18.96;58.83;101039.63;7400362;19;1812;-62
2023/01/30 10:40:00;;;;;;;;;;;;;;;18.95;58.73;101028.06;7399532;19;1701;-61
2023/01/30 10:42:36;;;;;;;;;;;;;;;18.90;59.14;101046.38;7400464;19;1627;-62
2023/01/30 10:45:12;;;;;;;;;;;;;;;18.80;58.46;101019.50;7400395;19;1701;-62
2023/01/30 10:47:46;;;;;;;;;;;;;;;18.83;58.71;101034.47;7400756;19;1965;-60
2023/01/30 10:50:17;;;;;;;;;;;;;;;18.79;58.80;101024.94;7398597;19;2040;-63
2023/01/30 10:52:48;;;;;;;;;;;;;;;18.95;58.50;101012.00;7398031;19;2202;-63
2023/01/30 10:55:21;;;;;;;;;;;;;;;19.01;58.83;101006.09;7395167;19;2057;-63
2023/01/30 10:57:56;;;;;;;;;;;;;;;18.91;59.02;100997.16;7400040;19;1869;-63
2023/01/30 11:00:29;;;;;;;;;;;;;;;18.80;58.53;101007.91;7398828;19;1559;-63
2023/01/30 11:03:06;;;;;;;;;;;;;;;18.57;57.84;101001.78;7399985;19;1927;-63
2023/01/30 11:05:41;;;;;;;;;;;;;;;18.39;56.66;100978.22;7400354;19;1959;-63
2023/01/30 11:08:13;;;;;;;;;;;;;;;18.49;55.51;100992.53;7399022;19;1811;-63
2023/01/30 11:10:41;;;;;;;;;;;;;;;18.60;54.96;100986.31;7399832;19;1834;-63
2023/01/30 11:13:16;;;;;;;;;;;;;;;18.83;53.50;100983.56;7400377;19;2533;-60
2023/01/30 11:15:46;;;;;;;;;;;;;;;19.00;53.59;100964.22;7396719;19;1899;-62
2023/01/30 11:18:15;;;;;;;;;;;;;;;19.20;53.75;100961.63;7399211;19;1732;-63
2023/01/30 11:20:45;;;;;;;;;;;;;;;19.07;54.52;100973.41;7398311;19;1962;-62
2023/01/30 11:23:25;;;;;;;;;;;;;;;18.96;54.83;100952.06;7398586;19;1630;-62
2023/01/30 11:25:54;;;;;;;;;;;;;;;18.98;54.75;100957.28;7398459;19;1656;-60
2023/01/30 11:28:25;;;;;;;;;;;;;;;18.93;55.06;100946.97;7400357;19;1735;-62
2023/01/30 11:30:57;;;;;;;;;;;;;;;18.86;55.31;100948.44;7397615;19;1901;-63
2023/01/30 11:33:33;;;;;;;;;;;;;;;18.86;55.51;100945.75;7397165;19;1878;-64
2023/01/30 11:36:02;;;;;;;;;;;;;;;18.88;55.81;100935.78;7397463;19;1689;-63
2023/01/30 11:38:31;;;;;;;;;;;;;;;18.88;56.06;100935.78;7397452;19;1680;-63
2023/01/30 11:41:04;;;;;;;;;;;;;;;18.89;56.20;100934.81;7398107;19;1558;-62
2023/01/30 11:43:38;;;;;;;;;;;;;;;18.93;56.35;100938.91;7404609;19;1729;-62
2023/01/30 11:46:07;;;;;;;;;;;;;;;18.88;56.73;100922.41;7405551;19;1825;-62
2023/01/30 11:48:37;;;;;;;;;;;;;;;18.85;56.69;100930.69;7404330;19;1833;-62
2023/01/30 11:51:07;;;;;;;;;;;;;;;18.92;56.65;100918.47;7405147;19;1543;-63
2023/01/30 11:53:37;;;;;;;;;;;;;;;18.86;56.90;100932.38;7404842;19;1857;-62
2023/01/30 11:56:08;;;;;;;;;;;;;;;18.84;56.90;100923.59;7403941;19;1821;-62
2023/01/30 11:58:45;;;;;;;;;;;;;;;18.83;57.07;100922.78;7405098;19;1736;-62
2023/01/30 12:01:13;;;;;;;;;;;;;;;18.88;57.28;100911.69;7403816;19;1722;-62
2023/01/30 12:03:47;;;;;;;;;;;;;;;18.85;57.35;100893.16;7403923;19;1571;-62
2023/01/30 12:06:23;;;;;;;;;;;;;;;18.76;57.69;100921.56;7403006;19;1629;-61
2023/01/30 12:08:53;;;;;;;;;;;;;;;18.84;56.82;100889.66;7404601;19;1711;-62
2023/01/30 12:11:29;;;;;;;;;;;;;;;18.77;56.96;100895.63;7405346;19;2000;-61
2023/01/30 12:14:06;;;;;;;;;;;;;;;18.95;57.01;100872.63;7404739;19;1967;-60
2023/01/30 12:16:43;;;;;;;;;;;;;;;18.36;57.01;100890.09;7405701;19;1882;-60
2023/01/30 12:19:16;;;;;;;;;;;;;;;17.76;58.93;100894.16;7405423;19;1888;-59
2023/01/30 12:21:47;;;;;;;;;;;;;;;17.47;59.08;100889.31;7404421;19;1049;-59
2023/01/30 12:24:21;;;;;;;;;;;;;;;17.50;58.85;100868.53;7402921;19;2003;-59
2023/01/30 12:26:52;;;;;;;;;;;;;;;17.40;60.24;100864.88;7404285;19;1800;-59
2023/01/30 12:29:30;;;;;;;;;;;;;;;18.21;58.30;100873.50;7404428;19;1056;-60
2023/01/30 12:32:04;;;;;;;;;;;;;;;19.07;56.41;100879.59;7405119;19;1140;-60
2023/01/30 12:34:32;;;;;;;;;;;;;;;19.38;55.42;100868.06;7404877;19;1853;-60
2023/01/30 12:37:07;;;;;;;;;;;;;;;19.44;56.06;100868.34;7403820;19;2081;-60
2023/01/30 12:39:44;;;;;;;;;;;;;;;19.68;55.34;100877.88;7404250;19;1744;-60
2023/01/30 12:42:22;;;;;;;;;;;;;;;19.63;55.52;100855.97;7404276;19;1941;-62
2023/01/30 12:45:03;;;;;;;;;;;;;;;19.41;56.40;100860.56;7404424;19;1708;-61
2023/01/30 12:47:38;;;;;;;;;;;;;;;19.28;56.62;100846.56;7404255;19;1767;-60
2023/01/30 12:50:22;;;;;;;;;;;;;;;19.30;57.03;100841.03;7402278;19;1890;-60
2023/01/30 12:52:57;;;;;;;;;;;;;;;19.07;57.12;100834.03;7403741;19;1686;-60
2023/01/30 12:55:34;;;;;;;;;;;;;;;19.03;57.42;100862.09;7399921;19;1858;-60
2023/01/30 12:58:04;;;;;;;;;;;;;;;19.19;56.96;100824.06;7403228;19;2091;-59
2023/01/30 13:00:42;;;;;;;;;;;;;;;19.27;57.03;100834.97;7403631;19;2001;-59
2023/01/30 13:03:20;;;;;;;;;;;;;;;19.36;56.49;100832.44;7403335;19;1918;-59
2023/01/30 13:05:52;;;;;;;;;;;;;;;19.30;56.48;100812.41;7403694;19;1890;-59
2023/01/30 13:08:36;;;;;;;;;;;;;;;19.24;57.00;100819.16;7402756;19;1887;-60